Time;durP1;ratioP1;P1;durP2;ratioP2;P2;SDS_P1;SDS_P2;PMS_P1;PMS_P2;Temp;Humidity;BMP_temperature;BMP_pressure;BME280_temperature;BME280_humidity;BME280_pressure;Samples;Min_cycle;Max_cycle;Signal;HPM_P1;HPM_P2
2022/09/18 00:00:31;;;;;;;1.60;1.50;;;8.80;99.90;;;;;;467144;254;28096;-68
2022/09/18 00:02:32;;;;;;;1.40;1.30;;;8.90;99.90;;;;;;467157;254;28170;-69
2022/09/18 00:04:33;;;;;;;2.50;1.47;;;8.90;99.90;;;;;;467189;254;28055;-71
2022/09/18 00:06:34;;;;;;;2.97;1.37;;;8.90;99.90;;;;;;467071;253;27994;-69
2022/09/18 00:08:37;;;;;;;1.63;1.53;;;8.90;99.90;;;;;;467171;254;28060;-70
2022/09/18 00:10:37;;;;;;;2.50;1.77;;;8.90;99.90;;;;;;467153;254;27828;-68
2022/09/18 00:12:38;;;;;;;1.83;1.53;;;8.90;99.90;;;;;;467167;253;28130;-69
2022/09/18 00:14:39;;;;;;;4.70;1.50;;;8.90;99.90;;;;;;467176;254;28241;-71
2022/09/18 00:16:41;;;;;;;1.30;1.30;;;8.90;99.90;;;;;;467075;254;27927;-69
2022/09/18 00:18:42;;;;;;;1.67;1.57;;;8.80;99.90;;;;;;467162;254;28100;-70
2022/09/18 00:20:43;;;;;;;3.10;1.37;;;8.90;99.90;;;;;;467190;254;28086;-69
2022/09/18 00:22:45;;;;;;;2.40;1.77;;;8.90;99.90;;;;;;467172;254;28048;-69
2022/09/18 00:24:46;;;;;;;2.63;1.60;;;8.90;99.90;;;;;;467184;254;28037;-71
2022/09/18 00:26:47;;;;;;;2.47;1.47;;;8.90;99.90;;;;;;467145;254;28123;-69
2022/09/18 00:28:48;;;;;;;2.03;1.57;;;9.00;99.90;;;;;;467176;254;28717;-70
2022/09/18 00:30:49;;;;;;;2.10;1.77;;;9.00;99.90;;;;;;467186;254;28902;-69
2022/09/18 00:32:51;;;;;;;1.60;1.50;;;9.00;99.90;;;;;;467121;254;28414;-69
2022/09/18 00:34:52;;;;;;;1.47;1.37;;;9.00;99.90;;;;;;467187;254;28574;-70
2022/09/18 00:36:53;;;;;;;2.80;1.80;;;9.00;99.90;;;;;;467091;254;28560;-70
2022/09/18 00:38:54;;;;;;;3.80;1.77;;;9.00;99.90;;;;;;467120;254;27702;-69
2022/09/18 00:40:56;;;;;;;3.87;1.60;;;9.00;99.90;;;;;;467196;254;28123;-69
2022/09/18 00:42:58;;;;;;;1.73;1.60;;;9.00;99.90;;;;;;467155;254;27659;-69
2022/09/18 00:44:59;;;;;;;2.07;1.50;;;9.00;99.90;;;;;;467150;254;28068;-70
2022/09/18 00:46:59;;;;;;;2.27;1.40;;;9.00;99.90;;;;;;467071;254;27680;-69
2022/09/18 00:49:02;;;;;;;4.10;1.67;;;9.00;99.90;;;;;;467026;254;27954;-70
2022/09/18 00:51:02;;;;;;;1.67;1.57;;;9.00;99.90;;;;;;466959;254;28187;-71
2022/09/18 00:53:06;;;;;;;2.60;1.60;;;9.00;99.90;;;;;;466945;254;27903;-70
2022/09/18 00:55:05;;;;;;;1.80;1.70;;;9.00;99.90;;;;;;467060;252;28058;-70
2022/09/18 00:57:06;;;;;;;1.40;1.30;;;9.00;99.90;;;;;;467128;254;27814;-69
2022/09/18 00:59:07;;;;;;;1.50;1.40;;;9.00;99.90;;;;;;467182;254;27819;-69
2022/09/18 01:01:09;;;;;;;2.40;1.50;;;9.00;99.90;;;;;;467197;254;27961;-70
2022/09/18 01:03:10;;;;;;;1.60;1.50;;;9.00;99.90;;;;;;467189;254;28119;-70
2022/09/18 01:05:11;;;;;;;2.27;2.07;;;9.00;99.90;;;;;;467078;254;28033;-69
2022/09/18 01:07:12;;;;;;;2.67;1.67;;;9.00;99.90;;;;;;467061;254;27947;-68
2022/09/18 01:09:14;;;;;;;1.90;1.63;;;9.00;99.90;;;;;;467117;254;28454;-69
2022/09/18 01:11:15;;;;;;;2.20;2.00;;;9.00;99.90;;;;;;467186;254;28414;-70
2022/09/18 01:13:16;;;;;;;2.57;2.00;;;9.00;99.90;;;;;;467156;254;28492;-70
2022/09/18 01:15:17;;;;;;;2.23;1.73;;;9.00;99.90;;;;;;467076;254;28082;-70
2022/09/18 01:17:18;;;;;;;3.43;1.80;;;9.00;99.90;;;;;;467097;254;28135;-69
2022/09/18 01:19:20;;;;;;;1.73;1.43;;;9.00;99.90;;;;;;467130;254;28026;-69
2022/09/18 01:21:21;;;;;;;1.90;1.80;;;9.00;99.90;;;;;;467201;254;27691;-73
2022/09/18 01:23:22;;;;;;;2.23;1.80;;;8.90;99.90;;;;;;467169;254;28100;-70
2022/09/18 01:25:23;;;;;;;2.10;1.93;;;8.90;99.90;;;;;;467135;254;27727;-70
2022/09/18 01:27:25;;;;;;;1.77;1.67;;;9.00;99.90;;;;;;467113;254;28023;-69
2022/09/18 01:29:26;;;;;;;2.70;1.70;;;9.00;99.90;;;;;;467136;254;27948;-69
2022/09/18 01:31:27;;;;;;;1.80;1.40;;;9.00;99.90;;;;;;467143;254;27848;-72
2022/09/18 01:33:28;;;;;;;2.10;1.90;;;9.00;99.90;;;;;;467151;254;28043;-69
2022/09/18 01:35:35;;;;;;;2.13;1.80;;;9.00;99.90;;;;;;467142;254;28063;-70
2022/09/18 01:37:31;;;;;;;3.40;2.10;;;9.00;99.90;;;;;;467089;252;28050;-69
2022/09/18 01:39:32;;;;;;;3.67;1.73;;;9.00;99.90;;;;;;467171;254;27527;-69
2022/09/18 01:41:33;;;;;;;6.80;1.87;;;9.00;99.90;;;;;;467150;254;28049;-72
2022/09/18 01:43:35;;;;;;;4.30;1.87;;;9.00;99.90;;;;;;467186;254;27648;-69
2022/09/18 01:45:36;;;;;;;2.70;2.07;;;9.00;99.90;;;;;;467107;254;28563;-70
2022/09/18 01:47:37;;;;;;;2.43;2.07;;;9.00;99.90;;;;;;467056;254;28545;-69
2022/09/18 01:49:38;;;;;;;6.97;2.20;;;9.00;99.90;;;;;;467141;254;27942;-69
2022/09/18 01:51:40;;;;;;;2.30;1.87;;;9.00;99.90;;;;;;467174;254;28556;-72
2022/09/18 01:53:41;;;;;;;1.70;1.60;;;9.00;99.90;;;;;;467176;254;28379;-69
2022/09/18 01:55:42;;;;;;;2.43;1.70;;;9.00;99.90;;;;;;467137;254;27964;-70
2022/09/18 01:57:43;;;;;;;2.73;1.73;;;9.00;99.90;;;;;;467098;254;27545;-69
2022/09/18 01:59:45;;;;;;;2.30;1.80;;;9.00;99.90;;;;;;467161;254;27859;-69
2022/09/18 02:01:46;;;;;;;3.03;2.00;;;9.00;99.90;;;;;;467139;254;27952;-71
2022/09/18 02:03:47;;;;;;;3.40;2.00;;;9.00;99.90;;;;;;467183;254;28110;-69
2022/09/18 02:05:48;;;;;;;4.83;1.90;;;9.00;99.90;;;;;;467153;254;28082;-69
2022/09/18 02:07:50;;;;;;;2.93;1.70;;;9.00;99.90;;;;;;467076;254;27918;-70
2022/09/18 02:09:51;;;;;;;3.23;1.73;;;9.00;99.90;;;;;;467149;254;27846;-69
2022/09/18 02:11:55;;;;;;;5.23;1.77;;;9.00;99.90;;;;;;467107;254;27832;-72
2022/09/18 02:13:56;;;;;;;3.50;2.00;;;9.00;99.90;;;;;;467145;254;27960;-68
2022/09/18 02:16:00;;;;;;;3.60;1.70;;;9.00;99.90;;;;;;467197;254;27685;-69
2022/09/18 02:17:59;;;;;;;2.30;1.60;;;9.00;99.90;;;;;;467077;253;28012;-70
2022/09/18 02:20:00;;;;;;;3.97;1.97;;;9.00;99.90;;;;;;467160;254;27894;-69
2022/09/18 02:22:01;;;;;;;4.27;1.97;;;8.90;99.90;;;;;;467117;254;27639;-70
2022/09/18 02:24:02;;;;;;;1.77;1.67;;;8.90;99.90;;;;;;467128;254;28002;-69
2022/09/18 02:26:06;;;;;;;4.17;1.83;;;8.90;99.90;;;;;;467097;254;28028;-70
2022/09/18 02:28:05;;;;;;;2.00;1.90;;;8.90;99.90;;;;;;467042;254;27975;-70
2022/09/18 02:30:06;;;;;;;3.83;1.83;;;8.90;99.90;;;;;;467120;254;27850;-68
2022/09/18 02:32:07;;;;;;;1.80;1.70;;;9.00;99.90;;;;;;467085;254;28094;-69
2022/09/18 02:34:09;;;;;;;2.53;1.70;;;9.00;99.90;;;;;;467164;254;27999;-72
2022/09/18 02:36:10;;;;;;;5.40;2.30;;;9.00;99.90;;;;;;467105;254;28159;-69
2022/09/18 02:38:12;;;;;;;2.03;1.40;;;9.00;99.90;;;;;;467123;254;28201;-70
2022/09/18 02:40:13;;;;;;;1.83;1.73;;;9.00;99.90;;;;;;467151;254;28467;-68
2022/09/18 02:42:14;;;;;;;1.93;1.63;;;9.00;99.90;;;;;;467101;254;28411;-70
2022/09/18 02:44:15;;;;;;;6.20;1.70;;;9.00;99.90;;;;;;467108;254;28539;-73
2022/09/18 02:46:16;;;;;;;1.70;1.30;;;9.00;99.90;;;;;;467086;254;27996;-69
2022/09/18 02:48:17;;;;;;;3.40;1.67;;;9.00;99.90;;;;;;467089;254;27857;-70
2022/09/18 02:50:19;;;;;;;2.30;1.80;;;9.00;99.90;;;;;;467102;254;27904;-69
2022/09/18 02:52:20;;;;;;;2.00;1.67;;;9.00;99.90;;;;;;467119;254;28041;-70
2022/09/18 02:54:21;;;;;;;1.93;1.83;;;9.00;99.90;;;;;;467167;254;27550;-72
2022/09/18 02:56:22;;;;;;;1.87;1.77;;;9.00;99.90;;;;;;467103;254;27982;-68
2022/09/18 02:58:24;;;;;;;1.83;1.70;;;9.00;99.90;;;;;;467066;252;28146;-70
2022/09/18 03:00:25;;;;;;;1.73;1.63;;;9.00;99.90;;;;;;467109;254;27913;-69
2022/09/18 03:02:26;;;;;;;2.43;2.10;;;9.00;99.90;;;;;;467144;254;27838;-70
2022/09/18 03:04:29;;;;;;;3.80;1.60;;;9.00;99.90;;;;;;467139;254;28037;-73
2022/09/18 03:06:30;;;;;;;2.13;1.60;;;9.00;99.90;;;;;;467106;254;27963;-70
2022/09/18 03:08:31;;;;;;;2.50;1.50;;;9.00;99.90;;;;;;467136;254;28211;-70
2022/09/18 03:10:32;;;;;;;3.07;1.70;;;9.00;99.90;;;;;;467132;254;28795;-69
2022/09/18 03:12:34;;;;;;;1.83;1.73;;;9.00;99.90;;;;;;467161;254;28574;-71
2022/09/18 03:14:35;;;;;;;2.00;1.90;;;9.10;99.90;;;;;;467071;254;28380;-69
2022/09/18 03:16:36;;;;;;;1.83;1.67;;;9.10;99.90;;;;;;467051;254;27953;-70
2022/09/18 03:18:37;;;;;;;5.60;1.90;;;9.10;99.90;;;;;;467126;254;29280;-69
2022/09/18 03:20:41;;;;;;;3.23;2.00;;;9.10;99.90;;;;;;467115;254;28104;-69
2022/09/18 03:22:40;;;;;;;2.40;1.90;;;9.10;99.90;;;;;;467130;254;28118;-70
2022/09/18 03:24:41;;;;;;;4.87;1.80;;;9.10;99.90;;;;;;467137;254;28154;-69
2022/09/18 03:26:43;;;;;;;3.23;1.83;;;9.10;99.90;;;;;;467103;254;27983;-70
2022/09/18 03:28:44;;;;;;;4.90;2.00;;;9.10;99.90;;;;;;467190;254;27622;-72
2022/09/18 03:30:45;;;;;;;4.33;1.80;;;9.10;99.90;;;;;;467167;254;28156;-68
2022/09/18 03:32:46;;;;;;;2.20;1.87;;;9.10;99.90;;;;;;467196;254;27698;-69
2022/09/18 03:34:47;;;;;;;1.50;1.40;;;9.10;99.90;;;;;;467077;254;27923;-71
2022/09/18 03:36:49;;;;;;;2.60;2.00;;;9.10;99.90;;;;;;467098;254;27846;-70
2022/09/18 03:38:50;;;;;;;2.00;1.80;;;9.10;99.90;;;;;;467158;254;28166;-72
2022/09/18 03:40:51;;;;;;;2.93;2.00;;;9.10;99.90;;;;;;467163;252;28446;-69
2022/09/18 03:42:52;;;;;;;2.10;1.90;;;9.10;99.90;;;;;;467145;254;28985;-70
2022/09/18 03:44:56;;;;;;;2.10;2.00;;;9.10;99.90;;;;;;467108;254;28270;-69
2022/09/18 03:46:55;;;;;;;3.60;2.27;;;9.10;99.90;;;;;;467041;254;28213;-69
2022/09/18 03:48:56;;;;;;;2.83;2.23;;;9.10;99.90;;;;;;467179;254;28148;-71
2022/09/18 03:50:57;;;;;;;3.73;2.33;;;9.10;99.90;;;;;;467146;254;27645;-69
2022/09/18 03:52:59;;;;;;;3.20;2.43;;;9.10;99.90;;;;;;467188;254;28205;-70
2022/09/18 03:55:00;;;;;;;2.60;2.40;;;9.20;99.90;;;;;;467133;254;27994;-69
2022/09/18 03:57:01;;;;;;;3.83;2.87;;;9.20;99.90;;;;;;467066;254;28073;-69
2022/09/18 03:59:02;;;;;;;4.17;3.00;;;9.20;99.90;;;;;;467203;254;28483;-72
2022/09/18 04:01:05;;;;;;;2.90;2.60;;;9.20;99.90;;;;;;467085;252;28022;-69
2022/09/18 04:03:05;;;;;;;6.03;2.73;;;9.20;99.90;;;;;;467160;254;27999;-70
2022/09/18 04:05:06;;;;;;;4.10;3.00;;;9.20;99.90;;;;;;467154;254;28149;-69
2022/09/18 04:07:07;;;;;;;2.70;2.50;;;9.10;99.90;;;;;;467107;254;27916;-69
2022/09/18 04:09:09;;;;;;;3.60;3.27;;;9.20;99.90;;;;;;467102;254;28060;-70
2022/09/18 04:11:13;;;;;;;3.33;3.03;;;9.20;99.90;;;;;;467137;254;28116;-71
2022/09/18 04:13:11;;;;;;;5.43;3.40;;;9.20;99.90;;;;;;467171;252;27929;-69
2022/09/18 04:15:13;;;;;;;3.53;3.10;;;9.20;99.90;;;;;;467169;254;28183;-72
2022/09/18 04:17:14;;;;;;;4.03;3.17;;;9.20;99.90;;;;;;467095;254;28277;-69
2022/09/18 04:19:15;;;;;;;3.60;3.30;;;9.20;99.90;;;;;;467175;254;27950;-70
2022/09/18 04:21:16;;;;;;;6.17;3.47;;;9.20;99.90;;;;;;467147;254;27937;-70
2022/09/18 04:23:18;;;;;;;4.70;3.53;;;9.20;99.90;;;;;;467106;254;27871;-69
2022/09/18 04:25:19;;;;;;;3.83;3.23;;;9.20;99.90;;;;;;467163;254;28168;-71
2022/09/18 04:27:20;;;;;;;7.73;3.50;;;9.10;99.90;;;;;;467034;254;27505;-69
2022/09/18 04:29:21;;;;;;;4.40;3.70;;;9.10;99.90;;;;;;467158;254;27950;-70
2022/09/18 04:31:23;;;;;;;3.90;3.33;;;9.10;99.90;;;;;;467144;254;28581;-69
2022/09/18 04:33:24;;;;;;;5.53;3.60;;;9.10;99.90;;;;;;467132;254;28210;-69
2022/09/18 04:35:25;;;;;;;6.23;3.80;;;9.20;99.90;;;;;;467179;254;28629;-72
2022/09/18 04:37:29;;;;;;;6.23;3.17;;;9.20;99.90;;;;;;467055;254;28490;-69
2022/09/18 04:39:31;;;;;;;3.67;3.23;;;9.20;99.90;;;;;;467174;254;27784;-67
2022/09/18 04:41:32;;;;;;;3.30;3.00;;;9.20;99.90;;;;;;467116;254;28054;-69
2022/09/18 04:43:33;;;;;;;3.83;3.07;;;9.20;99.90;;;;;;467121;254;27789;-69
2022/09/18 04:45:34;;;;;;;5.67;3.07;;;9.10;99.90;;;;;;467170;254;28141;-69
2022/09/18 04:47:35;;;;;;;5.93;3.23;;;9.10;99.90;;;;;;467089;254;28553;-71
2022/09/18 04:49:37;;;;;;;3.40;3.10;;;9.10;99.90;;;;;;467132;254;28336;-69
2022/09/18 04:51:38;;;;;;;5.43;3.07;;;9.10;99.90;;;;;;467145;254;28419;-69
2022/09/18 04:53:39;;;;;;;4.40;3.40;;;9.10;99.90;;;;;;467102;254;30107;-71
2022/09/18 04:55:40;;;;;;;3.67;3.37;;;9.10;99.90;;;;;;467163;254;28526;-70
2022/09/18 04:57:42;;;;;;;4.07;3.37;;;9.10;99.90;;;;;;467122;254;28199;-70
2022/09/18 04:59:43;;;;;;;3.10;2.90;;;9.10;99.90;;;;;;467166;254;28106;-69
2022/09/18 05:01:44;;;;;;;4.37;3.03;;;9.10;99.90;;;;;;467171;254;27946;-70
2022/09/18 05:03:45;;;;;;;3.20;3.00;;;9.20;99.90;;;;;;467148;254;27912;-69
2022/09/18 05:05:47;;;;;;;3.73;3.40;;;9.20;99.90;;;;;;467158;254;27999;-69
2022/09/18 05:07:48;;;;;;;5.43;3.20;;;9.20;99.90;;;;;;467127;254;28101;-72
2022/09/18 05:09:50;;;;;;;4.43;2.97;;;9.20;99.90;;;;;;467131;254;28175;-69
2022/09/18 05:11:50;;;;;;;6.53;3.20;;;9.10;99.90;;;;;;467178;254;28251;-70
2022/09/18 05:13:55;;;;;;;3.20;2.50;;;9.10;99.90;;;;;;467097;254;28125;-69
2022/09/18 05:15:53;;;;;;;5.33;2.93;;;9.10;99.90;;;;;;467161;253;27686;-69
2022/09/18 05:17:54;;;;;;;8.17;2.80;;;9.10;99.90;;;;;;467114;254;28126;-72
2022/09/18 05:19:56;;;;;;;3.00;2.80;;;9.20;99.90;;;;;;467124;254;27922;-68
2022/09/18 05:21:57;;;;;;;4.53;2.57;;;9.20;99.90;;;;;;467107;254;27950;-69
2022/09/18 05:23:58;;;;;;;5.53;3.40;;;9.20;99.90;;;;;;467118;254;27676;-69
2022/09/18 05:25:59;;;;;;;2.70;2.50;;;9.20;99.90;;;;;;467103;254;28011;-71
2022/09/18 05:28:00;;;;;;;3.57;3.17;;;9.10;99.90;;;;;;467122;254;28428;-70
2022/09/18 05:30:02;;;;;;;3.40;3.00;;;9.20;99.90;;;;;;467089;254;28464;-69
2022/09/18 05:32:03;;;;;;;4.63;2.90;;;9.20;99.90;;;;;;467039;254;28432;-69
2022/09/18 05:34:04;;;;;;;2.87;2.67;;;9.20;99.90;;;;;;467175;254;28590;-69
2022/09/18 05:36:06;;;;;;;2.83;2.63;;;9.10;99.90;;;;;;467109;254;27804;-69
2022/09/18 05:38:07;;;;;;;4.90;3.00;;;9.10;99.90;;;;;;467115;254;27954;-69
2022/09/18 05:40:08;;;;;;;3.33;2.83;;;9.10;99.90;;;;;;467090;254;28009;-68
2022/09/18 05:42:09;;;;;;;5.70;3.20;;;9.10;99.90;;;;;;467151;254;27869;-69
2022/09/18 05:44:11;;;;;;;2.83;2.40;;;9.10;99.90;;;;;;467186;254;27966;-72
2022/09/18 05:46:13;;;;;;;3.80;2.50;;;9.10;99.90;;;;;;467082;252;28059;-69
2022/09/18 05:48:13;;;;;;;3.97;2.60;;;9.10;99.90;;;;;;467151;254;28071;-69
2022/09/18 05:50:14;;;;;;;2.90;2.20;;;9.10;99.90;;;;;;467084;254;28442;-69
2022/09/18 05:52:15;;;;;;;2.67;2.40;;;9.10;99.90;;;;;;467140;254;28453;-69
2022/09/18 05:54:17;;;;;;;5.07;2.17;;;9.10;99.90;;;;;;467125;253;28635;-71
2022/09/18 05:56:18;;;;;;;3.33;2.17;;;9.10;99.90;;;;;;467079;254;28557;-69
2022/09/18 05:58:19;;;;;;;5.23;3.00;;;9.10;99.90;;;;;;467177;253;28222;-70
2022/09/18 06:00:20;;;;;;;6.70;2.50;;;9.10;99.90;;;;;;467164;254;28163;-69
2022/09/18 06:02:22;;;;;;;4.43;2.50;;;9.10;99.90;;;;;;467157;254;27960;-70
2022/09/18 06:04:23;;;;;;;4.80;2.43;;;9.10;99.90;;;;;;467160;254;27943;-69
2022/09/18 06:06:24;;;;;;;2.80;2.60;;;9.10;99.90;;;;;;467070;254;27970;-69
2022/09/18 06:08:26;;;;;;;3.17;2.20;;;9.10;99.90;;;;;;467130;254;28064;-70
2022/09/18 06:10:27;;;;;;;4.00;2.33;;;9.10;99.90;;;;;;467161;254;28152;-71
2022/09/18 06:12:28;;;;;;;2.63;2.23;;;9.10;99.90;;;;;;467131;254;28015;-69
2022/09/18 06:14:29;;;;;;;9.23;3.10;;;9.10;99.90;;;;;;467137;254;27731;-69
2022/09/18 06:16:30;;;;;;;3.07;2.30;;;9.10;99.90;;;;;;467076;254;27518;-69
2022/09/18 06:18:32;;;;;;;3.97;2.80;;;9.10;99.90;;;;;;467187;254;27686;-71
2022/09/18 06:20:33;;;;;;;3.27;2.20;;;9.10;99.90;;;;;;467165;254;27458;-68
2022/09/18 06:22:34;;;;;;;2.60;2.33;;;9.20;99.90;;;;;;467069;254;27995;-69
2022/09/18 06:24:35;;;;;;;2.47;2.00;;;9.20;99.90;;;;;;467143;254;27927;-70
2022/09/18 06:26:37;;;;;;;3.23;2.60;;;9.20;99.90;;;;;;467073;254;27845;-70
2022/09/18 06:28:38;;;;;;;4.43;2.20;;;9.10;99.90;;;;;;467182;254;28492;-72
2022/09/18 06:30:39;;;;;;;3.70;2.30;;;9.20;99.90;;;;;;467166;254;28495;-69
2022/09/18 06:32:40;;;;;;;2.33;1.97;;;9.20;99.90;;;;;;467134;254;28561;-70
2022/09/18 06:34:42;;;;;;;4.73;3.20;;;9.30;99.90;;;;;;467157;254;27887;-69
2022/09/18 06:36:43;;;;;;;4.87;2.13;;;9.30;99.90;;;;;;467132;254;27768;-69
2022/09/18 06:38:44;;;;;;;3.17;2.30;;;9.40;99.90;;;;;;467132;254;28137;-72
2022/09/18 06:40:46;;;;;;;2.67;2.10;;;9.40;99.90;;;;;;467189;254;28026;-70
2022/09/18 06:42:47;;;;;;;2.50;2.30;;;9.40;99.90;;;;;;467092;254;28082;-70
2022/09/18 06:44:48;;;;;;;2.60;2.40;;;9.50;99.90;;;;;;467149;254;27898;-69
2022/09/18 06:46:49;;;;;;;3.90;2.50;;;9.50;99.90;;;;;;467101;254;28016;-69
2022/09/18 06:48:51;;;;;;;3.50;2.20;;;9.50;99.90;;;;;;467117;254;27944;-70
2022/09/18 06:50:52;;;;;;;3.03;2.33;;;9.40;99.90;;;;;;467137;254;27939;-69
2022/09/18 06:52:53;;;;;;;2.60;2.40;;;9.40;99.90;;;;;;467088;253;27925;-69
2022/09/18 06:54:54;;;;;;;2.70;2.50;;;9.40;99.90;;;;;;467144;254;27852;-69
2022/09/18 06:56:56;;;;;;;3.17;2.43;;;9.40;99.90;;;;;;466718;254;28361;-68
2022/09/18 06:58:57;;;;;;;7.37;2.60;;;9.40;99.90;;;;;;467117;254;28519;-72
2022/09/18 07:00:58;;;;;;;4.70;2.70;;;9.50;99.90;;;;;;467144;254;29196;-68
2022/09/18 07:02:59;;;;;;;3.70;3.00;;;9.50;99.90;;;;;;467105;254;28052;-70
2022/09/18 07:05:01;;;;;;;3.37;2.87;;;9.50;99.90;;;;;;467041;254;28270;-69
2022/09/18 07:07:02;;;;;;;3.47;2.47;;;9.50;99.90;;;;;;467033;254;27845;-70
2022/09/18 07:09:03;;;;;;;2.90;2.50;;;9.50;99.90;;;;;;467168;254;27903;-72
2022/09/18 07:11:04;;;;;;;3.63;2.73;;;9.60;99.90;;;;;;467086;254;28115;-68
2022/09/18 07:13:06;;;;;;;2.97;2.43;;;9.60;99.90;;;;;;467142;254;28095;-69
2022/09/18 07:15:07;;;;;;;2.93;2.37;;;9.70;99.90;;;;;;467101;254;27927;-68
2022/09/18 07:17:08;;;;;;;3.37;2.50;;;9.80;99.90;;;;;;467062;254;27569;-68
2022/09/18 07:19:09;;;;;;;3.43;2.70;;;9.80;99.90;;;;;;467191;254;27935;-71
2022/09/18 07:21:11;;;;;;;3.00;2.33;;;9.90;99.90;;;;;;467087;254;27901;-69
2022/09/18 07:23:12;;;;;;;3.03;2.63;;;10.00;99.90;;;;;;467147;254;28094;-70
2022/09/18 07:25:13;;;;;;;6.57;3.03;;;10.00;99.90;;;;;;467179;254;27575;-69
2022/09/18 07:27:14;;;;;;;2.80;2.50;;;10.10;99.90;;;;;;473973;247;28087;-69
2022/09/18 07:29:16;;;;;;;3.00;2.70;;;10.10;99.90;;;;;;481958;246;27921;-72
2022/09/18 07:31:17;;;;;;;2.70;2.50;;;10.10;99.90;;;;;;473290;246;29105;-70
2022/09/18 07:33:18;;;;;;;3.23;2.40;;;10.20;99.90;;;;;;472046;251;28392;-70
2022/09/18 07:35:20;;;;;;;2.73;2.53;;;10.30;99.90;;;;;;472040;251;28446;-69
2022/09/18 07:37:21;;;;;;;5.30;2.70;;;10.20;99.90;;;;;;471926;251;28512;-69
2022/09/18 07:39:22;;;;;;;2.80;2.60;;;10.20;99.90;;;;;;472039;251;28538;-72
2022/09/18 07:41:23;;;;;;;2.70;2.50;;;10.30;99.90;;;;;;472043;251;28584;-70
2022/09/18 07:43:25;;;;;;;4.70;2.60;;;10.30;99.90;;;;;;472003;251;28060;-70
2022/09/18 07:45:26;;;;;;;3.00;2.63;;;10.30;99.90;;;;;;472341;247;28018;-70
2022/09/18 07:47:27;;;;;;;2.53;2.30;;;10.40;99.90;;;;;;471768;247;28020;-69
2022/09/18 07:49:28;;;;;;;3.10;2.90;;;10.40;99.90;;;;;;471793;251;28054;-72
2022/09/18 07:51:30;;;;;;;2.50;2.37;;;10.40;99.90;;;;;;471632;251;27795;-68
2022/09/18 07:53:31;;;;;;;2.57;2.40;;;10.50;99.90;;;;;;472009;251;27958;-69
2022/09/18 07:55:32;;;;;;;2.50;2.30;;;10.50;99.90;;;;;;471994;251;28046;-69
2022/09/18 07:57:33;;;;;;;4.63;2.20;;;10.60;99.90;;;;;;471935;251;28093;-69
2022/09/18 07:59:35;;;;;;;3.90;2.40;;;10.60;99.90;;;;;;470875;248;28588;-71
2022/09/18 08:01:36;;;;;;;2.50;2.27;;;10.50;99.90;;;;;;470634;251;28469;-70
2022/09/18 08:03:37;;;;;;;2.50;2.40;;;10.50;99.90;;;;;;470640;251;27943;-70
2022/09/18 08:05:38;;;;;;;2.10;1.90;;;10.50;99.90;;;;;;470594;251;27980;-68
2022/09/18 08:07:40;;;;;;;5.00;2.83;;;10.70;99.90;;;;;;470627;251;27983;-69
2022/09/18 08:09:41;;;;;;;5.03;2.20;;;10.60;99.90;;;;;;470669;252;28018;-71
2022/09/18 08:11:42;;;;;;;4.93;2.03;;;10.60;99.90;;;;;;470647;251;27840;-69
2022/09/18 08:13:44;;;;;;;5.37;2.33;;;10.80;99.90;;;;;;470639;252;28138;-69
2022/09/18 08:15:45;;;;;;;4.50;2.20;;;10.70;99.90;;;;;;470703;252;27978;-72
2022/09/18 08:17:46;;;;;;;2.50;1.97;;;10.70;99.90;;;;;;470576;251;28084;-70
2022/09/18 08:19:47;;;;;;;2.27;1.93;;;10.80;99.90;;;;;;470714;251;28712;-73
2022/09/18 08:21:49;;;;;;;1.90;1.80;;;10.90;99.90;;;;;;470660;251;28615;-69
2022/09/18 08:23:50;;;;;;;4.20;2.20;;;10.90;99.90;;;;;;470586;251;27944;-69
2022/09/18 08:25:51;;;;;;;3.67;1.90;;;10.80;99.90;;;;;;470665;251;27956;-72
2022/09/18 08:27:52;;;;;;;9.50;2.17;;;10.90;99.90;;;;;;470568;251;27915;-69
2022/09/18 08:29:54;;;;;;;2.07;1.83;;;10.90;99.90;;;;;;470646;251;27946;-69
2022/09/18 08:31:55;;;;;;;1.70;1.60;;;11.00;99.90;;;;;;471952;251;28099;-70
2022/09/18 08:33:56;;;;;;;2.10;1.90;;;11.10;99.90;;;;;;471974;251;28050;-70
2022/09/18 08:35:57;;;;;;;6.67;1.70;;;11.30;99.90;;;;;;471962;251;28304;-74
2022/09/18 08:37:59;;;;;;;1.83;1.73;;;11.40;99.90;;;;;;471986;251;28124;-70
2022/09/18 08:40:00;;;;;;;2.53;2.03;;;11.40;99.90;;;;;;472014;251;28290;-70
2022/09/18 08:42:01;;;;;;;3.63;2.03;;;11.40;99.90;;;;;;471754;251;29396;-69
2022/09/18 08:44:03;;;;;;;3.20;1.73;;;11.50;99.90;;;;;;471834;251;28560;-69
2022/09/18 08:46:04;;;;;;;6.20;2.03;;;11.60;99.90;;;;;;471781;251;28831;-73
2022/09/18 08:48:05;;;;;;;2.60;2.17;;;11.50;99.90;;;;;;471676;251;28704;-71
2022/09/18 08:50:06;;;;;;;2.90;2.10;;;11.60;99.90;;;;;;471125;247;28834;-71
2022/09/18 08:52:08;;;;;;;4.57;1.67;;;11.70;99.90;;;;;;471609;251;28948;-73
2022/09/18 08:54:09;;;;;;;3.83;2.20;;;11.50;99.90;;;;;;471999;251;28777;-69
2022/09/18 08:56:10;;;;;;;2.70;1.93;;;11.40;99.90;;;;;;468823;253;28282;-70
2022/09/18 08:58:11;;;;;;;3.43;2.00;;;11.50;99.90;;;;;;471092;252;28368;-70
2022/09/18 09:00:13;;;;;;;2.07;1.80;;;11.60;99.90;;;;;;477638;249;28271;-70
2022/09/18 09:02:14;;;;;;;2.17;1.70;;;11.70;99.90;;;;;;468955;252;28367;-72
2022/09/18 09:04:15;;;;;;;3.83;1.93;;;11.70;99.90;;;;;;471150;252;28391;-70
2022/09/18 09:06:18;;;;;;;1.87;1.77;;;11.80;99.90;;;;;;477580;249;28428;-69
2022/09/18 09:08:18;;;;;;;3.40;1.77;;;11.90;99.90;;;;;;468818;253;28589;-69
2022/09/18 09:10:19;;;;;;;1.70;1.60;;;12.00;99.90;;;;;;471163;252;28392;-70
2022/09/18 09:12:20;;;;;;;2.10;1.90;;;12.10;99.90;;;;;;477675;249;28370;-73
2022/09/18 09:14:21;;;;;;;2.60;1.80;;;12.10;99.90;;;;;;468893;252;29867;-71
2022/09/18 09:16:24;;;;;;;1.80;1.60;;;12.10;99.90;;;;;;471143;252;29492;-70
2022/09/18 09:18:24;;;;;;;6.23;2.00;;;12.30;99.90;;;;;;477629;249;28806;-69
2022/09/18 09:20:25;;;;;;;2.63;1.70;;;12.20;99.90;;;;;;468902;253;28926;-70
2022/09/18 09:22:26;;;;;;;1.87;1.60;;;12.30;99.90;;;;;;471220;252;28249;-71
2022/09/18 09:24:28;;;;;;;2.40;1.70;;;12.20;99.90;;;;;;477680;249;28865;-69
2022/09/18 09:26:31;;;;;;;4.77;1.73;;;12.30;99.90;;;;;;468868;252;28634;-69
2022/09/18 09:28:30;;;;;;;2.17;1.70;;;12.30;99.90;;;;;;469074;252;36322;-70
2022/09/18 09:30:32;;;;;;;2.87;2.10;;;12.40;99.90;;;;;;477628;249;27520;-69
2022/09/18 09:32:33;;;;;;;4.40;2.27;;;12.60;99.90;;;;;;468966;252;29033;-72
2022/09/18 09:34:34;;;;;;;3.80;1.80;;;12.70;99.90;;;;;;471153;252;28240;-70
2022/09/18 09:36:35;;;;;;;5.13;2.07;;;12.80;99.90;;;;;;477544;249;28680;-70
2022/09/18 09:38:37;;;;;;;2.37;1.83;;;12.70;99.90;;;;;;468925;252;29662;-69
2022/09/18 09:40:38;;;;;;;2.97;1.90;;;12.80;99.90;;;;;;471191;252;28783;-70
2022/09/18 09:42:39;;;;;;;2.53;2.33;;;12.80;99.90;;;;;;477616;249;28308;-71
2022/09/18 09:44:40;;;;;;;2.40;1.70;;;12.80;99.90;;;;;;468932;252;28364;-69
2022/09/18 09:46:42;;;;;;;2.60;1.43;;;12.70;99.90;;;;;;470891;252;28521;-70
2022/09/18 09:48:44;;;;;;;2.17;1.80;;;12.70;99.90;;;;;;477607;249;28259;-71
2022/09/18 09:50:45;;;;;;;2.80;1.80;;;12.70;99.90;;;;;;468938;252;28901;-73
2022/09/18 09:52:46;;;;;;;3.00;1.73;;;12.70;99.90;;;;;;471183;251;28821;-70
2022/09/18 09:54:47;;;;;;;3.43;1.47;;;12.90;99.90;;;;;;477625;249;28821;-69
2022/09/18 09:56:50;;;;;;;1.63;1.53;;;13.10;99.90;;;;;;475038;249;28174;-70
2022/09/18 09:58:50;;;;;;;2.70;1.70;;;13.10;99.90;;;;;;477071;249;28761;-73
2022/09/18 10:00:51;;;;;;;1.77;1.50;;;13.40;99.90;;;;;;477229;248;28844;-72
2022/09/18 10:02:53;;;;;;;3.60;1.50;;;13.50;99.90;;;;;;477303;248;28825;-71
2022/09/18 10:04:54;;;;;;;1.63;1.53;;;13.50;99.90;;;;;;477230;248;28840;-70
2022/09/18 10:06:55;;;;;;;1.77;1.67;;;13.60;99.90;;;;;;477334;248;28660;-70
2022/09/18 10:08:58;;;;;;;2.50;1.70;;;13.70;99.90;;;;;;477477;248;28237;-69
2022/09/18 10:10:58;;;;;;;1.63;1.50;;;13.60;99.90;;;;;;477443;249;28818;-71
2022/09/18 10:12:59;;;;;;;1.70;1.60;;;13.60;99.90;;;;;;477503;248;28900;-71
2022/09/18 10:15:00;;;;;;;3.20;1.70;;;13.60;99.90;;;;;;477442;248;29055;-71
2022/09/18 10:17:01;;;;;;;2.13;1.57;;;13.60;99.90;;;;;;477407;248;29497;-70
2022/09/18 10:19:03;;;;;;;2.30;1.50;;;13.60;99.90;;;;;;477437;248;28747;-70
2022/09/18 10:21:04;;;;;;;1.97;1.70;;;13.70;99.90;;;;;;477500;248;28812;-72
2022/09/18 10:23:05;;;;;;;3.90;1.83;;;13.50;99.90;;;;;;477466;248;28478;-70
2022/09/18 10:25:06;;;;;;;3.00;1.87;;;13.40;99.90;;;;;;477409;248;28504;-70
2022/09/18 10:27:08;;;;;;;1.50;1.30;;;13.30;99.90;;;;;;473892;248;36194;-69
2022/09/18 10:29:09;;;;;;;1.87;1.77;;;13.40;99.90;;;;;;477493;248;27408;-70
2022/09/18 10:31:11;;;;;;;2.27;1.53;;;13.30;99.90;;;;;;477476;248;28279;-72
2022/09/18 10:33:11;;;;;;;1.90;1.80;;;13.20;99.90;;;;;;477448;248;28412;-69
2022/09/18 10:35:13;;;;;;;3.10;1.87;;;13.00;99.90;;;;;;477432;248;28876;-70